createdAt,value
2022-07-28T08:10:18.841Z,98029.22
2022-07-28T08:12:52.096Z,98029.05
2022-07-28T08:15:26.696Z,98031.31
2022-07-28T08:18:02.337Z,98030.32
2022-07-28T08:20:35.377Z,98030.70
2022-07-28T08:23:09.458Z,98035.81
2022-07-28T08:25:42.460Z,98027.83
2022-07-28T08:28:15.458Z,98026.80
2022-07-28T08:30:48.379Z,98028.10
2022-07-28T08:33:22.341Z,98022.06
2022-07-28T08:35:57.146Z,98024.83
2022-07-28T08:38:30.578Z,98021.31
2022-07-28T08:41:06.495Z,98023.03
2022-07-28T08:43:43.258Z,98020.09
2022-07-28T08:46:16.929Z,98016.25
2022-07-28T08:48:52.774Z,98019.70
2022-07-28T08:51:29.178Z,98023.49
2022-07-28T08:54:03.924Z,98023.78
2022-07-28T08:56:48.134Z,98020.51
2022-07-28T08:59:21.587Z,98017.72
2022-07-28T09:01:57.639Z,98010.02
2022-07-28T09:04:34.617Z,98011.94
2022-07-28T09:07:07.857Z,98010.55
2022-07-28T09:09:41.296Z,98011.70
2022-07-28T09:12:14.978Z,98004.48
2022-07-28T09:14:49.576Z,98009.34
2022-07-28T09:17:23.145Z,98012.16
2022-07-28T09:19:56.024Z,98010.08
2022-07-28T09:22:27.216Z,98005.04
2022-07-28T09:24:59.737Z,98000.70
2022-07-28T09:27:45.098Z,98006.30
2022-07-28T09:30:17.939Z,98003.91
2022-07-28T09:32:49.257Z,98006.23
2022-07-28T09:35:25.498Z,98003.95
2022-07-28T09:38:06.234Z,98001.40
2022-07-28T09:40:39.222Z,98003.23
2022-07-28T09:43:10.768Z,98000.89
2022-07-28T09:45:43.338Z,98005.77
2022-07-28T09:48:19.040Z,98000.03
2022-07-28T09:50:52.018Z,98006.12
2022-07-28T09:53:29.059Z,98007.48
2022-07-28T09:56:03.745Z,98003.27
2022-07-28T09:58:37.298Z,98005.13
2022-07-28T10:01:13.224Z,98005.98
2022-07-28T10:03:50.584Z,98006.20
2022-07-28T10:06:30.378Z,98008.17
2022-07-28T10:09:06.141Z,98000.84
2022-07-28T10:11:41.745Z,97998.20
2022-07-28T10:14:16.304Z,98002.84
2022-07-28T10:16:53.631Z,97998.98
2022-07-28T10:19:27.577Z,97998.94
2022-07-28T10:22:01.496Z,98001.06
2022-07-28T10:24:37.459Z,98006.88
2022-07-28T10:27:10.935Z,98004.59
2022-07-28T10:29:46.339Z,98002.73
2022-07-28T10:32:19.217Z,97999.15
2022-07-28T10:34:51.016Z,98003.05
2022-07-28T10:37:28.577Z,97996.66
2022-07-28T10:40:10.118Z,97993.02
2022-07-28T10:43:04.783Z,97985.30
2022-07-28T10:46:04.490Z,97982.90
2022-07-28T10:48:33.323Z,97982.34
2022-07-28T10:51:07.025Z,97984.05
2022-07-28T10:54:03.815Z,97984.96
2022-07-28T10:56:48.201Z,97988.66
2022-07-28T10:59:37.465Z,97986.71
2022-07-28T11:02:11.074Z,97977.34
2022-07-28T11:05:02.298Z,97975.39
2022-07-28T11:07:44.055Z,97979.27
2022-07-28T11:10:27.176Z,97970.92
2022-07-28T11:13:04.053Z,97979.31
2022-07-28T11:15:38.941Z,97977.46
2022-07-28T11:18:13.337Z,97977.09
2022-07-28T11:21:09.699Z,97971.89
2022-07-28T11:23:49.260Z,97973.77
2022-07-28T11:26:39.233Z,97972.46
2022-07-28T11:29:23.817Z,97966.33
2022-07-28T11:32:04.938Z,97968.73
2022-07-28T11:35:15.018Z,97968.17
2022-07-28T11:38:17.057Z,97962.83
2022-07-28T11:40:52.137Z,97962.76
2022-07-28T11:43:44.300Z,97961.55
2022-07-28T11:46:38.597Z,97961.32
2022-07-28T11:49:19.987Z,97959.46
2022-07-28T11:52:11.499Z,97957.66
2022-07-28T11:54:49.627Z,97953.06
2022-07-28T11:57:24.617Z,97953.65
2022-07-28T12:00:00.538Z,97951.11
2022-07-28T12:02:34.706Z,97949.31
2022-07-28T12:05:12.650Z,97953.00
2022-07-28T12:07:48.617Z,97956.10
2022-07-28T12:13:39.350Z,97948.34
2022-07-28T12:16:15.056Z,97946.69
2022-07-28T12:18:53.776Z,97947.59
2022-07-28T12:21:46.631Z,97948.88
2022-07-28T12:24:28.225Z,97947.67
2022-07-28T12:27:01.858Z,97938.08
2022-07-28T12:29:36.077Z,97937.77
2022-07-28T12:32:11.012Z,97936.86
2022-07-28T12:34:45.050Z,97939.85
2022-07-28T12:37:18.257Z,97939.61
2022-07-28T12:39:55.145Z,97943.30
2022-07-28T12:42:34.300Z,97933.95
2022-07-28T12:45:10.538Z,97930.39
2022-07-28T12:47:44.060Z,97924.44
2022-07-28T12:50:19.458Z,97927.99
2022-07-28T12:56:01.160Z,97934.44
2022-07-28T12:58:36.697Z,97931.75
2022-07-28T13:01:12.871Z,97929.80
2022-07-28T13:03:53.899Z,97928.53
2022-07-28T13:06:27.619Z,97927.82
2022-07-28T13:09:04.659Z,97924.02
2022-07-28T13:11:47.107Z,97920.16
2022-07-28T13:14:20.305Z,97921.90
2022-07-28T13:17:02.431Z,97922.26
2022-07-28T13:19:38.462Z,97927.97
2022-07-28T13:22:15.618Z,97922.71
2022-07-28T13:24:49.025Z,97919.73
2022-07-28T13:27:21.777Z,97921.50
2022-07-28T13:29:52.858Z,97925.63
2022-07-28T13:32:28.635Z,97923.35
2022-07-28T13:35:02.022Z,97928.20
2022-07-28T13:37:36.658Z,97925.69
2022-07-28T13:40:11.437Z,97924.05
2022-07-28T13:42:53.449Z,97920.08
2022-07-28T13:45:31.021Z,97918.86
2022-07-28T13:48:05.016Z,97919.54
2022-07-28T13:50:40.058Z,97920.05
2022-07-28T13:53:11.022Z,97912.98
2022-07-28T13:56:02.300Z,97911.73
2022-07-28T13:58:32.898Z,97916.52
2022-07-28T14:01:07.062Z,97910.54
2022-07-28T14:03:55.284Z,97907.98
2022-07-28T14:06:30.697Z,97909.88
2022-07-28T14:09:04.546Z,97907.05
2022-07-28T14:11:37.616Z,97904.30
2022-07-28T14:14:12.491Z,97903.92
2022-07-28T14:16:47.876Z,97902.72
2022-07-28T14:19:23.063Z,97896.13
2022-07-28T14:22:14.085Z,97890.60
2022-07-28T14:24:47.260Z,97891.80
2022-07-28T14:27:28.636Z,97898.83
2022-07-28T14:30:03.368Z,97900.62
2022-07-28T14:32:38.971Z,97896.81
2022-07-28T14:35:12.578Z,97900.90
2022-07-28T14:40:39.951Z,97905.27
2022-07-28T14:43:14.451Z,97902.09
2022-07-28T14:46:00.433Z,97904.95
2022-07-28T14:48:44.130Z,97898.56
2022-07-28T14:51:17.342Z,97895.46
2022-07-28T14:53:52.097Z,97897.90
2022-07-28T14:56:25.537Z,97890.14
2022-07-28T14:58:58.417Z,97892.34
2022-07-28T15:01:29.640Z,97894.48
2022-07-28T15:04:10.686Z,97892.52
2022-07-28T15:06:45.300Z,97892.08
2022-07-28T15:09:18.700Z,97888.23
2022-07-28T15:11:52.097Z,97886.64
2022-07-28T15:14:25.215Z,97886.96
2022-07-28T15:16:59.221Z,97881.90
2022-07-28T15:19:34.617Z,97883.12
2022-07-28T15:22:07.738Z,97880.42
2022-07-28T15:24:42.497Z,97876.55
2022-07-28T15:27:18.737Z,97872.04
2022-07-28T15:29:55.579Z,97872.08
2022-07-28T15:32:37.249Z,97870.70
2022-07-28T15:35:20.663Z,97871.63
2022-07-28T15:37:53.698Z,97868.20
2022-07-28T15:40:26.856Z,97865.33
2022-07-28T15:43:01.156Z,97865.34
2022-07-28T15:45:35.818Z,97864.94
2022-07-28T15:48:12.660Z,97864.55
2022-07-28T15:50:49.677Z,97864.64
2022-07-28T15:53:23.099Z,97866.83
2022-07-28T15:55:56.147Z,97868.26
2022-07-28T15:58:31.299Z,97868.02
2022-07-28T16:01:04.261Z,97864.49
2022-07-28T16:03:37.256Z,97864.93
2022-07-28T16:06:10.457Z,97867.02
2022-07-28T16:08:44.097Z,97867.60
2022-07-28T16:11:17.989Z,97866.36
2022-07-28T16:13:51.379Z,97864.98
2022-07-28T16:16:24.312Z,97867.14
2022-07-28T16:18:59.981Z,97868.44
2022-07-28T16:21:32.742Z,97866.25
2022-07-28T16:24:03.577Z,97868.27
2022-07-28T16:26:39.380Z,97865.92
2022-07-28T16:29:14.299Z,97866.50
2022-07-28T16:31:47.136Z,97868.02
2022-07-28T16:34:18.396Z,97867.30
2022-07-28T16:36:51.738Z,97866.43
2022-07-28T16:39:24.776Z,97867.86
2022-07-28T16:41:59.255Z,97867.62
2022-07-28T16:44:32.832Z,97872.08
2022-07-28T16:47:06.501Z,97867.95
2022-07-28T16:49:45.269Z,97867.06
2022-07-28T16:52:19.657Z,97868.88
2022-07-28T16:54:53.426Z,97871.12
2022-07-28T16:57:26.898Z,97870.17
2022-07-28T17:00:00.119Z,97873.27
2022-07-28T17:02:33.616Z,97872.80
2022-07-28T17:05:07.356Z,97870.66
2022-07-28T17:07:45.668Z,97873.30
2022-07-28T17:10:20.535Z,97874.80
2022-07-28T17:12:59.659Z,97880.67
2022-07-28T17:15:33.049Z,97880.35
2022-07-28T17:18:06.507Z,97880.72
2022-07-28T17:20:42.744Z,97879.91
2022-07-28T17:23:17.459Z,97879.44
2022-07-28T17:26:34.705Z,97879.56
2022-07-28T17:28:43.537Z,97887.46
2022-07-28T17:31:16.582Z,97886.44
2022-07-28T17:33:50.500Z,97890.39
2022-07-28T17:36:23.583Z,97888.19
2022-07-28T17:38:55.059Z,97889.54
2022-07-28T17:41:30.858Z,97892.52
2022-07-28T17:44:03.902Z,97894.65
2022-07-28T17:46:37.329Z,97898.90
2022-07-28T17:49:11.454Z,97904.52
2022-07-28T17:51:45.416Z,97905.20
2022-07-28T17:54:20.216Z,97908.88
2022-07-28T17:56:57.100Z,97908.25
2022-07-28T17:59:35.905Z,97909.52
2022-07-28T18:02:24.784Z,97915.69
2022-07-28T18:04:57.696Z,97920.68
2022-07-28T18:07:31.098Z,97920.33
2022-07-28T18:10:24.953Z,97918.87
2022-07-28T18:13:00.153Z,97924.58
2022-07-28T18:15:33.154Z,97924.57
2022-07-28T18:18:03.941Z,97921.85
2022-07-28T18:20:38.181Z,97923.23
2022-07-28T18:23:11.858Z,97923.19
2022-07-28T18:25:45.338Z,97925.30
2022-07-28T18:28:21.057Z,97923.42
2022-07-28T18:30:53.965Z,97926.52
2022-07-28T18:33:26.098Z,97929.15
2022-07-28T18:35:58.498Z,97932.00
2022-07-28T18:38:32.712Z,97934.25
2022-07-28T18:41:05.657Z,97940.99
2022-07-28T18:43:38.538Z,97944.77
2022-07-28T18:46:11.463Z,97948.88
2022-07-28T18:48:48.105Z,97950.35
2022-07-28T18:51:25.651Z,97950.70
2022-07-28T18:53:59.016Z,97953.95
2022-07-28T18:56:32.741Z,97958.73
2022-07-28T18:59:05.816Z,97958.43
2022-07-28T19:01:38.988Z,97961.92
2022-07-28T19:04:11.628Z,97964.98
2022-07-28T19:06:45.434Z,97967.78
2022-07-28T19:09:18.779Z,97968.46
2022-07-28T19:11:53.100Z,97970.04
2022-07-28T19:14:26.067Z,97973.59
2022-07-28T19:16:58.260Z,97968.59
2022-07-28T19:19:33.865Z,97972.80
2022-07-28T19:22:09.540Z,97970.16
2022-07-28T19:24:42.707Z,97968.65
2022-07-28T19:27:13.818Z,97967.44
2022-07-28T19:29:46.744Z,97969.71
2022-07-28T19:32:20.355Z,97970.08
2022-07-28T19:34:53.386Z,97969.67
2022-07-28T19:37:26.867Z,97969.09
2022-07-28T19:39:59.901Z,97974.81
2022-07-28T19:42:35.866Z,97978.77
2022-07-28T19:45:10.618Z,97977.92
2022-07-28T19:47:43.938Z,97975.63
2022-07-28T19:50:14.699Z,97974.72
2022-07-28T19:52:47.778Z,97976.94
2022-07-28T19:55:23.455Z,97979.63
2022-07-28T19:57:56.778Z,97974.12
2022-07-28T20:00:27.697Z,97972.37
2022-07-28T20:03:00.740Z,97972.43
2022-07-28T20:05:31.739Z,97970.58
2022-07-28T20:08:04.697Z,97974.80
2022-07-28T20:10:41.102Z,97974.45
2022-07-28T20:13:16.163Z,97981.98
2022-07-28T20:15:48.975Z,97982.83
2022-07-28T20:18:22.337Z,97988.13
2022-07-28T20:20:57.820Z,97992.01
2022-07-28T20:23:30.696Z,97992.86
2022-07-28T20:26:04.219Z,97994.55
2022-07-28T20:28:38.540Z,97992.54
2022-07-28T20:31:17.612Z,97995.47
2022-07-28T20:33:50.857Z,97999.56
2022-07-28T20:36:26.222Z,97999.78
2022-07-28T20:39:15.777Z,97998.34
2022-07-28T20:41:54.403Z,97997.28
2022-07-28T20:44:29.133Z,97996.38
2022-07-28T20:47:06.136Z,97991.23
2022-07-28T20:49:40.984Z,97989.52
2022-07-28T20:52:14.020Z,97990.89
2022-07-28T20:54:54.306Z,97989.11
2022-07-28T20:57:27.978Z,97994.30
2022-07-28T21:00:05.148Z,97994.30
2022-07-28T21:02:38.628Z,97994.71
2022-07-28T21:05:26.615Z,97997.13
2022-07-28T21:08:09.150Z,97997.05
2022-07-28T21:10:49.456Z,97994.69
2022-07-28T21:13:20.697Z,97998.82
2022-07-28T21:15:53.737Z,98001.10
2022-07-28T21:18:26.538Z,97997.94
2022-07-28T21:20:59.937Z,98003.36
2022-07-28T21:23:32.696Z,98002.17
2022-07-28T21:26:11.858Z,98003.45
2022-07-28T21:29:03.417Z,98005.20
2022-07-28T21:31:36.616Z,98008.65
2022-07-28T21:34:29.508Z,98017.08
2022-07-28T21:37:02.502Z,98018.12
2022-07-28T21:39:37.030Z,98021.12
2022-07-28T21:42:10.336Z,98021.77
2022-07-28T21:44:43.095Z,98021.85
2022-07-28T21:47:36.148Z,98022.30
2022-07-28T21:50:11.057Z,98021.92
2022-07-28T21:52:44.099Z,98023.70
2022-07-28T21:55:17.178Z,98028.90
2022-07-28T21:57:51.896Z,98031.94
2022-07-28T22:00:25.460Z,98033.05
2022-07-28T22:03:00.317Z,98034.52
2022-07-28T22:05:34.177Z,98036.59
2022-07-28T22:08:09.015Z,98038.58
2022-07-28T22:10:42.056Z,98041.18
2022-07-28T22:13:20.218Z,98040.27
2022-07-28T22:15:53.216Z,98040.96
2022-07-28T22:18:27.378Z,98039.59
2022-07-28T22:21:00.377Z,98037.92
2022-07-28T22:23:34.657Z,98038.75
2022-07-28T22:26:07.938Z,98039.67
2022-07-28T22:28:40.667Z,98042.23
2022-07-28T22:31:13.888Z,98040.95
2022-07-28T22:33:47.339Z,98040.55
2022-07-28T22:36:21.735Z,98045.77
2022-07-28T22:38:55.983Z,98045.13
2022-07-28T22:41:29.217Z,98043.98
2022-07-28T22:44:02.864Z,98038.70
2022-07-28T22:46:37.073Z,98040.27
2022-07-28T22:49:10.501Z,98039.62
2022-07-28T22:51:48.201Z,98037.64
2022-07-28T22:54:21.664Z,98032.81
2022-07-28T22:56:54.741Z,98032.73
2022-07-28T22:59:30.010Z,98032.24
2022-07-28T23:02:10.976Z,98029.09
2022-07-28T23:04:51.185Z,98031.52
2022-07-28T23:07:35.271Z,98028.11
2022-07-28T23:10:17.829Z,98028.78
2022-07-28T23:12:50.938Z,98027.58
2022-07-28T23:15:40.670Z,98032.98
2022-07-28T23:18:15.421Z,98033.60
2022-07-28T23:20:49.419Z,98035.11
2022-07-28T23:23:22.345Z,98036.02
2022-07-28T23:25:55.099Z,98036.61
2022-07-28T23:28:26.778Z,98037.41
2022-07-28T23:30:59.821Z,98034.54
2022-07-28T23:33:54.565Z,98035.69
2022-07-28T23:36:28.221Z,98035.45
2022-07-28T23:39:02.302Z,98034.98
2022-07-28T23:41:40.658Z,98033.06
2022-07-28T23:44:14.418Z,98029.13
2022-07-28T23:46:49.253Z,98030.03
2022-07-28T23:49:22.354Z,98029.48
2022-07-28T23:51:58.261Z,98029.77
2022-07-28T23:54:31.660Z,98028.06
2022-07-28T23:57:02.537Z,98029.59
2022-07-28T23:59:38.623Z,98028.83
